HB9KNR Weather Reports


time (UTC)temp
F
wind
direction
speed
knots
gust
knots
rain 1hr
in
rain 24hr
in
rain mn
in
humidity
%
barometer
mb
20220811231521 64 0.0 0.9 0.00 0.00 0.00 67 1018.4
20220811230518 65 0.0 0.0 0.00 0.00 0.00 68 1018.4
20220811225516 65 0.0 0.0 0.00 0.00 0.00 68 1018.4
20220811224543 65 0.0 0.0 0.00 0.00 0.00 67 1018.4
20220811223523 66 0.0 0.0 0.00 0.00 0.00 66 1018.4
20220811222605 66 0.0 0.9 0.00 0.00 0.00 66 1018.3
20220811221543 66 0.0 1.7 0.00 0.00 0.00 66 1018.4
20220811220543 66 0.0 1.7 0.00 0.00 0.00 65 1018.3
20220811215544 67 0.0 0.9 0.00 0.00 0.00 65 1018.3
20220811214522 67 0.0 1.7 0.00 0.00 0.00 65 1018.4
20220811213617 67 203 0.9 2.6 0.00 0.00 0.00 66 1018.4
20220811212544 67 0.0 1.7 0.00 0.00 0.00 66 1018.3
20220811211522 67 203 0.9 2.6 0.00 0.00 0.00 66 1018.2
20220811210522 67 203 0.9 2.6 0.00 0.00 0.00 66 1018.2
20220811205606 68 203 0.9 2.6 0.00 0.00 0.00 65 1018.2
20220811204524 68 203 0.9 3.5 0.00 0.00 0.00 65 1018.1
20220811202517 69 68 0.9 2.6 0.00 0.00 0.00 64 1017.9
20220811201522 70 68 0.9 2.6 0.00 0.00 0.00 63 1018.0
20220811200646 71 0.0 1.7 0.00 0.00 0.00 62 1018.0
20220811195524 71 68 0.9 3.5 0.00 0.00 0.00 61 1017.9
20220811194522 72 0.0 2.6 0.00 0.00 0.00 59 1017.8
20220811193544 74 0.0 1.7 0.00 0.00 0.00 58 1017.9
20220811192524 75 68 0.9 1.7 0.00 0.00 0.00 56 1017.9
20220811191537 76 0.0 1.7 0.00 0.00 0.00 54 1017.8
20220811190524 76 68 0.9 1.7 0.00 0.00 0.00 51 1017.7
20220811185522 77 0.0 2.6 0.00 0.00 0.00 49 1017.7
20220811184542 77 0.0 2.6 0.00 0.00 0.00 49 1017.6
20220811183522 78 45 0.9 3.5 0.00 0.00 0.00 48 1017.6
20220811182522 78 0.0 1.7 0.00 0.00 0.00 48 1017.7
20220811181558 79 45 1.7 4.3 0.00 0.00 0.00 48 1017.6
20220811180516 79 45 0.9 2.6 0.00 0.00 0.00 47 1017.5
20220811175622 80 0.0 2.6 0.00 0.00 0.00 45 1017.4
20220811174542 80 0.0 3.5 0.00 0.00 0.00 45 1017.3
20220811173523 80 45 0.9 4.3 0.00 0.00 0.00 44 1017.2
20220811172522 80 113 0.9 2.6 0.00 0.00 0.00 45 1017.0
20220811171522 80 0.0 0.0 0.00 0.00 0.00 46 1017.0
20220811170621 80 0.0 2.6 0.00 0.00 0.00 46 1017.0
20220811165516 80 0.0 1.7 0.00 0.00 0.00 46 1017.0
20220811164648 80 0.0 0.9 0.00 0.00 0.00 46 1017.0
20220811163542 80 0.0 1.7 0.00 0.00 0.00 48 1017.1
20220811162542 80 0.0 0.9 0.00 0.00 0.00 47 1017.3
20220811161522 80 0.0 0.9 0.00 0.00 0.00 46 1017.4
20220811160542 80 0.0 2.6 0.00 0.00 0.00 46 1017.5
20220811155559 81 0.0 3.5 0.00 0.00 0.00 45 1017.6
20220811154542 82 0.0 2.6 0.00 0.00 0.00 45 1017.8
20220811153542 82 0.0 1.7 0.00 0.00 0.00 47 1017.9
20220811152544 82 0.0 0.9 0.00 0.00 0.00 44 1017.9
20220811151627 82 0.0 1.7 0.00 0.00 0.00 45 1018.0
20220811150523 82 0.0 2.6 0.00 0.00 0.00 46 1018.0
20220811145522 82 0.0 2.6 0.00 0.00 0.00 47 1018.2
20220811144516 82 0.0 1.7 0.00 0.00 0.00 47 1018.3
20220811143602 82 0.0 2.6 0.00 0.00 0.00 46 1018.3
20220811142543 82 0.0 2.6 0.00 0.00 0.00 47 1018.4
20220811141521 81 0.0 2.6 0.00 0.00 0.00 48 1018.4
20220811140522 81 0.0 2.6 0.00 0.00 0.00 47 1018.4
20220811135542 81 0.0 2.6 0.00 0.00 0.00 46 1018.6
20220811134704 81 0.0 2.6 0.00 0.00 0.00 49 1018.8
20220811133516 81 0.0 2.6 0.00 0.00 0.00 48 1018.8
20220811132602 81 0.0 3.5 0.00 0.00 0.00 49 1018.9
20220811131625 81 0.0 0.9 0.00 0.00 0.00 48 1019.2
20220811130605 81 0.0 2.6 0.00 0.00 0.00 49 1019.2
20220811125522 80 0.0 2.6 0.00 0.00 0.00 50 1019.2
20220811124605 80 45 0.9 4.3 0.00 0.00 0.00 48 1019.2
20220811123642 80 0.0 2.6 0.00 0.00 0.00 50 1019.4
20220811122557 79 0.0 1.7 0.00 0.00 0.00 50 1019.5
20220811121521 79 45 0.9 3.5 0.00 0.00 0.00 50 1019.7
20220811120521 79 45 0.9 4.3 0.00 0.00 0.00 50 1019.8
20220811115523 78 45 1.7 6.1 0.00 0.00 0.00 52 1019.8
20220811114542 78 158 0.9 7.0 0.00 0.00 0.00 51 1019.9
20220811113603 78 90 0.9 3.5 0.00 0.00 0.00 52 1020.0
20220811112536 78 0.0 2.6 0.00 0.00 0.00 52 1020.0
20220811111518 77 90 0.9 4.3 0.00 0.00 0.00 51 1020.1
20220811110522 76 68 0.9 4.3 0.00 0.00 0.00 53 1020.1
20220811105542 76 45 3.5 7.8 0.00 0.00 0.00 51 1020.1
20220811104543 76 45 0.9 4.3 0.00 0.00 0.00 55 1020.2
20220811103646 76 45 0.9 3.5 0.00 0.00 0.00 55 1020.3
20220811102542 75 0.0 1.7 0.00 0.00 0.00 56 1020.2
20220811101516 74 0.0 1.7 0.00 0.00 0.00 55 1020.1
20220811100521 74 180 0.9 3.5 0.00 0.00 0.00 57 1020.1
20220811095543 73 45 0.9 4.3 0.00 0.00 0.00 57 1020.1
20220811094602 72 0.0 2.6 0.00 0.00 0.00 57 1020.2
20220811093523 71 0.0 2.6 0.00 0.00 0.00 59 1020.2
20220811092540 71 23 0.9 2.6 0.00 0.00 0.00 59 1020.1
20220811091602 70 0.0 0.9 0.00 0.00 0.00 60 1020.2
20220811090616 70 0.0 1.7 0.00 0.00 0.00 59 1020.2
20220811085543 69 0.0 0.9 0.00 0.00 0.00 60 1020.3
20220811084522 69 0.0 0.0 0.00 0.00 0.00 61 1020.3
20220811082605 68 0.0 2.6 0.00 0.00 0.00 60 1020.3
20220811081625 68 0.0 4.3 0.00 0.00 0.00 62 1020.2
20220811080541 68 0.0 2.6 0.00 0.00 0.00 63 1020.4
20220811075536 68 0.0 2.6 0.00 0.00 0.00 63 1020.3
20220811074603 67 0.0 1.7 0.00 0.00 0.00 61 1020.3
20220811073541 67 0.0 1.7 0.00 0.00 0.00 62 1020.5
20220811072542 67 0.0 0.0 0.00 0.00 0.00 63 1020.5
20220811071521 66 0.0 0.9 0.00 0.00 0.00 63 1020.5
20220811070521 66 0.0 0.0 0.00 0.00 0.00 65 1020.5
20220811064540 65 0.0 2.6 0.00 0.00 0.00 65 1020.5
20220811063543 65 0.0 0.0 0.00 0.00 0.00 68 1020.5
20220811062521 64 0.0 2.6 0.00 0.00 0.00 68 1020.5
20220811061541 64 23 0.9 4.3 0.00 0.00 0.00 67 1020.5
20220811060541 63 0.0 1.7 0.00 0.00 0.00 69 1020.5
20220811055543 63 315 0.9 2.6 0.00 0.00 0.00 70 1020.4
20220811054538 61 0.0 1.7 0.00 0.00 0.00 75 1020.3
20220811053516 58 0.0 0.0 0.00 0.00 0.00 84 1020.3
20220811052543 58 0.0 0.0 0.00 0.00 0.00 83 1020.2
20220811051541 57 0.0 0.0 0.00 0.00 0.00 82 1020.0
20220811050647 57 0.0 0.0 0.00 0.00 0.00 81 1020.0
20220811045521 57 0.0 0.9 0.00 0.00 0.00 80 1019.9
20220811044643 57 0.0 0.9 0.00 0.00 0.00 79 1020.0
20220811043516 57 0.0 1.7 0.00 0.00 0.00 79 1019.9
20220811042516 58 0.0 0.0 0.00 0.00 0.00 78 1020.0
20220811041601 58 0.0 1.7 0.00 0.00 0.00 78 1020.0
20220811040541 58 0.0 1.7 0.00 0.00 0.00 78 1020.0
20220811035523 58 0.0 1.7 0.00 0.00 0.00 77 1019.9
20220811034541 59 0.0 0.9 0.00 0.00 0.00 77 1020.0
20220811033543 59 0.0 0.9 0.00 0.00 0.00 77 1020.1
20220811032516 59 0.0 1.7 0.00 0.00 0.00 76 1019.9
20220811031705 59 0.0 0.9 0.00 0.00 0.00 76 1019.9
20220811030521 59 225 0.9 2.6 0.00 0.00 0.00 76 1019.9
20220811025601 60 225 0.9 2.6 0.00 0.00 0.00 75 1020.0
20220811024601 60 225 0.9 2.6 0.00 0.00 0.00 75 1020.1
20220811023539 60 225 0.9 1.7 0.00 0.00 0.00 75 1020.2
20220811022523 60 0.0 0.0 0.00 0.00 0.00 74 1020.2
20220811021536 60 0.0 0.0 0.00 0.00 0.00 74 1020.2
20220811020521 60 0.0 0.9 0.00 0.00 0.00 74 1020.1
20220811015544 60 0.0 0.0 0.00 0.00 0.00 73 1020.2
20220811014523 60 0.0 0.9 0.00 0.00 0.00 72 1020.2
20220811013521 60 0.0 1.7 0.00 0.00 0.00 72 1020.2
20220811012521 61 0.0 1.7 0.00 0.00 0.00 72 1020.1
20220811011521 61 225 0.9 2.6 0.00 0.00 0.00 71 1020.2
20220811010516 61 225 0.9 2.6 0.00 0.00 0.00 71 1020.2
20220811005542 61 225 0.9 2.6 0.00 0.00 0.00 71 1020.2
20220811004522 61 225 0.9 2.6 0.00 0.00 0.00 70 1020.3
20220811003643 61 225 0.9 2.6 0.00 0.00 0.00 70 1020.3
20220811002521 61 0.0 1.7 0.00 0.00 0.00 69 1020.2
20220811001541 62 0.0 1.7 0.00 0.00 0.00 69 1020.4
20220811000603 62 225 0.9 2.6 0.00 0.00 0.00 68 1020.4
20220810235639 62 225 0.9 3.5 0.00 0.00 0.00 67 1020.3
20220810234521 63 225 0.9 2.6 0.00 0.00 0.00 66 1020.3
20220810233624 63 225 0.9 2.6 0.00 0.00 0.00 65 1020.4
20220810232522 63 225 0.9 2.6 0.00 0.00 0.00 64 1020.4